Badan Meteorologi, Klimatologi, dan Geofisika

CUACA TERKINI BANDARA KUALANAMU

Sabtu, 31 Oktober 2020 09:10 UTC

Cuaca : Berawan

Angin : (dari) Utara, 11.1 km/jam

Jarak Pandang : >=10 km

Suhu : 30 °C

Waktu Pengamatan : 16:00 WIB

Selengkapnya>>>

DATA METEOROLOGI KUALANAMU

Data Metar Terbaru

TAF WIMM 310500Z 3106/0106 36010KT 9999 SCT017 TEMPO 3108/3112 VRB15KT 3000 TSRA FEW016CB BECMG 3112/3114 VRB03KT 4000 BR =

Selengkapnya>>>

Data TAF Terbaru

TAF WIMM 310500Z 3106/0106 36010KT 9999 SCT017 TEMPO 3108/3112 VRB15KT 3000 TSRA FEW016CB BECMG 3112/3114 VRB03KT 4000 BR =

Selengkapnya>>>

CITRA SATELIT

Enhanced
Citra Satelit
Cloud Type
Citra Satelit IR
Hotspot
Citra Satelit
Sebaran Asap
Citra Satelit